Time,TemperatureF,DewpointF,PressureIn,WindDirection,WindDirectionDegrees,WindSpeedMPH,WindSpeedGustMPH,Humidity,HourlyPrecipIn,Conditions,Clouds,dailyrainin,SoftwareType,DateUTC
2013-06-24 00:08:00,74.8,71.0,30.06,North,5,0.0,0.0,87,0.00,,,0.00,weatherlink.com 1.10,2013-06-24 04:08:00,
2013-06-24 00:22:00,74.7,71.0,30.06,North,5,0.0,0.0,87,0.00,,,0.00,weatherlink.com 1.10,2013-06-24 04:22:00,
2013-06-24 00:38:00,74.5,71.0,30.06,North,5,0.0,0.0,87,0.00,,,0.00,weatherlink.com 1.10,2013-06-24 04:38:00,
2013-06-24 00:53:00,74.3,71.0,30.06,North,5,0.0,1.0,88,0.00,,,0.00,weatherlink.com 1.10,2013-06-24 04:53:00,
2013-06-24 01:08:00,74.2,71.0,30.06,NNW,332,0.0,1.0,88,0.00,,,0.00,weatherlink.com 1.10,2013-06-24 05:08:00,
2013-06-24 01:23:00,74.0,71.0,30.05,NNW,332,0.0,0.0,89,0.00,,,0.00,weatherlink.com 1.10,2013-06-24 05:23:00,
2013-06-24 01:38:00,73.8,71.0,30.05,NNW,332,0.0,0.0,90,0.00,,,0.00,weatherlink.com 1.10,2013-06-24 05:38:00,
2013-06-24 01:53:00,73.6,71.0,30.05,NNW,332,0.0,0.0,90,0.00,,,0.00,weatherlink.com 1.10,2013-06-24 05:53:00,
2013-06-24 02:08:00,73.5,71.0,30.05,NNW,332,0.0,1.0,91,0.00,,,0.00,weatherlink.com 1.10,2013-06-24 06:08:00,
2013-06-24 02:23:00,73.6,71.0,30.05,NW,320,0.0,2.0,91,0.00,,,0.00,weatherlink.com 1.10,2013-06-24 06:23:00,
2013-06-24 02:38:00,73.6,71.0,30.04,NW,321,0.0,1.0,91,0.00,,,0.00,weatherlink.com 1.10,2013-06-24 06:38:00,
2013-06-24 03:08:00,73.6,71.0,30.04,NW,304,0.0,0.0,90,0.00,,,0.00,weatherlink.com 1.10,2013-06-24 07:08:00,
2013-06-24 03:23:00,73.7,71.0,30.04,NW,304,0.0,0.0,90,0.00,,,0.00,weatherlink.com 1.10,2013-06-24 07:23:00,
2013-06-24 03:38:00,73.7,71.0,30.05,NW,304,0.0,0.0,90,0.00,,,0.00,weatherlink.com 1.10,2013-06-24 07:38:00,
2013-06-24 04:08:00,73.1,70.0,30.04,NW,304,0.0,0.0,89,0.00,,,0.00,weatherlink.com 1.10,2013-06-24 08:08:00,
2013-06-24 04:23:00,72.9,70.0,30.05,NW,304,0.0,0.0,90,0.00,,,0.00,weatherlink.com 1.10,2013-06-24 08:23:00,
2013-06-24 04:38:00,72.8,70.0,30.05,NW,304,0.0,0.0,91,0.00,,,0.00,weatherlink.com 1.10,2013-06-24 08:38:00,
2013-06-24 04:53:00,72.8,70.0,30.05,NW,304,0.0,0.0,91,0.00,,,0.00,weatherlink.com 1.10,2013-06-24 08:53:00,
2013-06-24 05:08:00,72.7,70.0,30.04,NW,304,0.0,0.0,90,0.00,,,0.00,weatherlink.com 1.10,2013-06-24 09:08:00,
2013-06-24 05:23:00,72.6,70.0,30.05,NW,304,0.0,0.0,90,0.00,,,0.00,weatherlink.com 1.10,2013-06-24 09:23:00,
2013-06-24 05:38:00,72.3,69.0,30.05,NW,304,0.0,0.0,90,0.00,,,0.00,weatherlink.com 1.10,2013-06-24 09:38:00,
2013-06-24 06:08:00,72.0,70.0,30.04,NNE,15,0.0,0.0,92,0.00,,,0.00,weatherlink.com 1.10,2013-06-24 10:08:00,
2013-06-24 06:23:00,72.1,70.0,30.05,NNE,15,0.0,0.0,93,0.00,,,0.00,weatherlink.com 1.10,2013-06-24 10:23:00,
2013-06-24 06:38:00,72.3,70.0,30.05,NNE,15,0.0,0.0,93,0.00,,,0.00,weatherlink.com 1.10,2013-06-24 10:38:00,
2013-06-24 06:53:00,72.9,71.0,30.06,NNE,15,0.0,1.0,93,0.00,,,0.00,weatherlink.com 1.10,2013-06-24 10:53:00,
2013-06-24 07:08:00,74.4,72.0,30.06,NNE,15,0.0,0.0,91,0.00,,,0.00,weatherlink.com 1.10,2013-06-24 11:08:00,
2013-06-24 07:23:00,76.2,72.0,30.06,ENE,63,0.0,1.0,87,0.00,,,0.00,weatherlink.com 1.10,2013-06-24 11:23:00,
2013-06-24 07:39:00,77.9,74.0,30.06,ENE,72,0.0,1.0,86,0.00,,,0.00,weatherlink.com 1.10,2013-06-24 11:39:00,
2013-06-24 08:09:00,81.8,75.0,30.06,North,11,0.0,1.0,79,0.00,,,0.00,weatherlink.com 1.10,2013-06-24 12:09:00,
2013-06-24 08:24:00,83.4,75.0,30.06,NW,306,0.0,3.0,76,0.00,,,0.00,weatherlink.com 1.10,2013-06-24 12:24:00,
2013-06-24 08:39:00,85.1,75.0,30.06,NW,320,0.0,1.0,71,0.00,,,0.00,weatherlink.com 1.10,2013-06-24 12:39:00,
2013-06-24 08:54:00,86.6,76.0,30.06,NNW,341,0.0,2.0,70,0.00,,,0.00,weatherlink.com 1.10,2013-06-24 12:54:00,
2013-06-24 09:09:00,88.0,76.0,30.06,NE,44,1.0,2.0,68,0.00,,,0.00,weatherlink.com 1.10,2013-06-24 13:09:00,
2013-06-24 09:24:00,88.7,75.0,30.06,North,355,0.0,2.0,65,0.00,,,0.00,weatherlink.com 1.10,2013-06-24 13:24:00,
2013-06-24 09:39:00,89.7,76.0,30.06,NNW,329,0.0,2.0,65,0.00,,,0.00,weatherlink.com 1.10,2013-06-24 13:39:00,
2013-06-24 09:54:00,91.2,77.0,30.05,NNW,340,0.0,2.0,63,0.00,,,0.00,weatherlink.com 1.10,2013-06-24 13:54:00,
2013-06-24 10:24:00,92.9,75.0,30.05,West,275,0.0,2.0,57,0.00,,,0.00,weatherlink.com 1.10,2013-06-24 14:24:00,
2013-06-24 10:39:00,94.0,77.0,30.06,NNW,327,0.0,2.0,58,0.00,,,0.00,weatherlink.com 1.10,2013-06-24 14:39:00,
2013-06-24 10:54:00,95.2,78.0,30.05,West,274,0.0,2.0,57,0.00,,,0.00,weatherlink.com 1.10,2013-06-24 14:54:00,
2013-06-24 11:09:00,95.3,76.0,30.05,ENE,78,0.0,1.0,54,0.00,,,0.00,weatherlink.com 1.10,2013-06-24 15:09:00,
2013-06-24 11:24:00,95.9,77.0,30.05,WSW,238,0.0,2.0,54,0.00,,,0.00,weatherlink.com 1.10,2013-06-24 15:24:00,
2013-06-24 11:39:00,96.8,76.0,30.05,NW,307,2.0,2.0,52,0.00,,,0.00,weatherlink.com 1.10,2013-06-24 15:39:00,
2013-06-24 11:55:00,97.0,75.0,30.05,WNW,298,0.0,4.0,50,0.00,,,0.00,weatherlink.com 1.10,2013-06-24 15:55:00,
2013-06-24 12:10:00,97.6,78.0,30.05,NW,321,1.0,2.0,53,0.00,,,0.00,weatherlink.com 1.10,2013-06-24 16:10:00,
2013-06-24 12:25:00,96.8,74.0,30.05,NW,321,0.0,5.0,48,0.00,,,0.00,weatherlink.com 1.10,2013-06-24 16:25:00,
2013-06-24 12:40:00,97.7,74.0,30.05,NNW,327,0.0,4.0,47,0.00,,,0.00,weatherlink.com 1.10,2013-06-24 16:40:00,
2013-06-24 12:55:00,96.8,75.0,30.04,East,88,1.0,1.0,49,0.00,,,0.00,weatherlink.com 1.10,2013-06-24 16:55:00,
2013-06-24 13:10:00,95.8,76.0,30.03,NNE,19,0.0,4.0,53,0.00,,,0.00,weatherlink.com 1.10,2013-06-24 17:10:00,
2013-06-24 13:25:00,95.1,74.0,30.03,NE,47,0.0,5.0,50,0.00,,,0.00,weatherlink.com 1.10,2013-06-24 17:25:00,
2013-06-24 13:40:00,94.1,74.0,30.03,West,262,0.0,2.0,53,0.00,,,0.00,weatherlink.com 1.10,2013-06-24 17:40:00,
2013-06-24 13:55:00,91.6,82.0,30.02,East,79,0.0,2.0,73,0.02,,,0.02,weatherlink.com 1.10,2013-06-24 17:55:00,
2013-06-24 14:10:00,87.9,79.0,30.00,North,5,0.0,1.0,74,0.02,,,0.02,weatherlink.com 1.10,2013-06-24 18:10:00,
2013-06-24 14:25:00,85.2,78.0,30.01,North,5,0.0,0.0,78,0.02,,,0.02,weatherlink.com 1.10,2013-06-24 18:25:00,
2013-06-24 14:40:00,82.5,75.0,30.02,NNE,27,0.0,3.0,79,0.02,,,0.02,weatherlink.com 1.10,2013-06-24 18:40:00,
2013-06-24 15:10:00,76.6,70.0,30.02,East,80,0.0,1.0,80,0.01,,,0.03,weatherlink.com 1.10,2013-06-24 19:10:00,
2013-06-24 15:25:00,74.1,68.0,30.01,East,90,0.0,2.0,80,0.01,,,0.03,weatherlink.com 1.10,2013-06-24 19:25:00,
2013-06-24 15:40:00,73.0,69.0,30.00,ENE,70,0.0,1.0,86,0.01,,,0.03,weatherlink.com 1.10,2013-06-24 19:40:00,
2013-06-24 15:55:00,73.8,70.0,30.00,NNE,30,0.0,1.0,88,0.00,,,0.03,weatherlink.com 1.10,2013-06-24 19:55:00,
2013-06-24 16:10:00,75.7,72.0,29.99,NNE,21,0.0,2.0,87,0.00,,,0.03,weatherlink.com 1.10,2013-06-24 20:10:00,
2013-06-24 16:25:00,76.7,72.0,29.97,NE,39,0.0,2.0,85,0.00,,,0.03,weatherlink.com 1.10,2013-06-24 20:25:00,
2013-06-24 16:40:00,77.8,70.0,29.97,NE,38,0.0,1.0,77,0.00,,,0.03,weatherlink.com 1.10,2013-06-24 20:40:00,
2013-06-24 16:55:00,78.2,71.0,29.96,ENE,76,0.0,2.0,78,0.00,,,0.03,weatherlink.com 1.10,2013-06-24 20:55:00,
2013-06-24 17:10:00,78.7,70.0,29.97,ENE,57,0.0,3.0,74,0.00,,,0.03,weatherlink.com 1.10,2013-06-24 21:10:00,
2013-06-24 17:25:00,79.0,70.0,29.96,WSW,237,0.0,2.0,75,0.00,,,0.03,weatherlink.com 1.10,2013-06-24 21:25:00,
2013-06-24 17:40:00,79.3,71.0,29.96,WSW,246,0.0,1.0,75,0.00,,,0.03,weatherlink.com 1.10,2013-06-24 21:40:00,
2013-06-24 17:55:00,79.6,71.0,29.96,NNE,33,0.0,1.0,75,0.00,,,0.03,weatherlink.com 1.10,2013-06-24 21:55:00,
2013-06-24 18:10:00,80.2,71.0,29.97,NNE,18,0.0,2.0,73,0.00,,,0.03,weatherlink.com 1.10,2013-06-24 22:10:00,
2013-06-24 18:25:00,80.6,72.0,29.97,NNE,17,0.0,1.0,74,0.00,,,0.03,weatherlink.com 1.10,2013-06-24 22:25:00,
2013-06-24 18:40:00,80.8,71.0,29.98,NW,311,0.0,2.0,72,0.00,,,0.03,weatherlink.com 1.10,2013-06-24 22:40:00,
2013-06-24 18:54:00,80.9,74.0,29.98,NNW,348,0.0,1.0,80,0.00,,,0.03,weatherlink.com 1.10,2013-06-24 22:54:00,
2013-06-24 19:09:00,80.4,71.0,29.98,NW,316,2.0,2.0,74,0.00,,,0.03,weatherlink.com 1.10,2013-06-24 23:09:00,
2013-06-24 19:39:00,78.7,70.0,29.97,NE,47,0.0,1.0,74,0.00,,,0.03,weatherlink.com 1.10,2013-06-24 23:39:00,
2013-06-24 20:39:00,76.4,66.0,29.96,NNE,26,0.0,0.0,71,0.00,,,0.03,weatherlink.com 1.10,2013-06-25 00:39:00,
2013-06-24 20:54:00,75.8,66.0,29.96,NNE,26,0.0,0.0,72,0.00,,,0.03,weatherlink.com 1.10,2013-06-25 00:54:00,
2013-06-24 21:09:00,75.2,66.0,29.97,NNE,26,0.0,0.0,73,0.00,,,0.03,weatherlink.com 1.10,2013-06-25 01:09:00,
2013-06-24 21:24:00,73.4,65.0,29.97,NNE,26,0.0,0.0,76,0.00,,,0.03,weatherlink.com 1.10,2013-06-25 01:24:00,
2013-06-24 21:39:00,72.3,65.0,29.98,NNE,26,0.0,0.0,79,0.00,,,0.03,weatherlink.com 1.10,2013-06-25 01:39:00,
2013-06-24 21:54:00,72.3,65.0,29.99,NNE,26,0.0,0.0,79,0.00,,,0.03,weatherlink.com 1.10,2013-06-25 01:54:00,
2013-06-24 22:09:00,72.4,66.0,30.00,NNE,26,0.0,0.0,80,0.00,,,0.03,weatherlink.com 1.10,2013-06-25 02:09:00,
2013-06-24 22:24:00,72.5,66.0,29.99,NNE,26,0.0,0.0,80,0.00,,,0.03,weatherlink.com 1.10,2013-06-25 02:24:00,
2013-06-24 23:09:00,72.4,66.0,29.99,NNE,26,0.0,0.0,80,0.00,,,0.03,weatherlink.com 1.10,2013-06-25 03:09:00,
2013-06-24 23:40:00,71.3,65.0,29.98,NNE,26,0.0,0.0,80,0.00,,,0.03,weatherlink.com 1.10,2013-06-25 03:40:00,